sensor_id;sensor_type;location;lat;lon;timestamp;temperature;humidity
72288;SHT31;60221;45.696;16.076;2022-09-27T00:00:33;20.90;62.81
72288;SHT31;60221;45.696;16.076;2022-09-27T00:03:00;20.91;62.88
72288;SHT31;60221;45.696;16.076;2022-09-27T00:05:28;20.93;62.94
72288;SHT31;60221;45.696;16.076;2022-09-27T00:07:55;20.93;62.82
72288;SHT31;60221;45.696;16.076;2022-09-27T00:10:21;20.90;62.61
72288;SHT31;60221;45.696;16.076;2022-09-27T00:12:47;20.89;62.56
72288;SHT31;60221;45.696;16.076;2022-09-27T00:15:14;20.90;62.55
72288;SHT31;60221;45.696;16.076;2022-09-27T00:17:42;20.89;62.36
72288;SHT31;60221;45.696;16.076;2022-09-27T00:20:08;20.93;62.44
72288;SHT31;60221;45.696;16.076;2022-09-27T00:22:35;20.90;62.41
72288;SHT31;60221;45.696;16.076;2022-09-27T00:25:02;20.90;62.30
72288;SHT31;60221;45.696;16.076;2022-09-27T00:27:30;20.90;62.19
72288;SHT31;60221;45.696;16.076;2022-09-27T00:29:56;20.89;62.19
72288;SHT31;60221;45.696;16.076;2022-09-27T00:32:23;20.89;61.87
72288;SHT31;60221;45.696;16.076;2022-09-27T00:34:49;20.87;61.81
72288;SHT31;60221;45.696;16.076;2022-09-27T00:37:15;20.84;61.86
72288;SHT31;60221;45.696;16.076;2022-09-27T00:39:41;20.87;61.87
72288;SHT31;60221;45.696;16.076;2022-09-27T00:42:12;20.80;61.83
72288;SHT31;60221;45.696;16.076;2022-09-27T00:44:50;20.79;62.11
72288;SHT31;60221;45.696;16.076;2022-09-27T00:50:03;20.79;62.32
72288;SHT31;60221;45.696;16.076;2022-09-27T00:55:44;20.73;62.34
72288;SHT31;60221;45.696;16.076;2022-09-27T00:58:14;20.73;62.26
72288;SHT31;60221;45.696;16.076;2022-09-27T01:00:46;20.73;62.19
72288;SHT31;60221;45.696;16.076;2022-09-27T01:03:29;20.73;62.24
72288;SHT31;60221;45.696;16.076;2022-09-27T01:05:53;20.71;62.18
72288;SHT31;60221;45.696;16.076;2022-09-27T01:08:20;20.72;61.82
72288;SHT31;60221;45.696;16.076;2022-09-27T01:11:17;20.71;61.86
72288;SHT31;60221;45.696;16.076;2022-09-27T01:19:03;20.68;61.88
72288;SHT31;60221;45.696;16.076;2022-09-27T01:21:39;20.63;62.08
72288;SHT31;60221;45.696;16.076;2022-09-27T01:24:22;20.59;62.33
72288;SHT31;60221;45.696;16.076;2022-09-27T01:27:16;20.58;62.32
72288;SHT31;60221;45.696;16.076;2022-09-27T01:30:20;20.58;62.31
72288;SHT31;60221;45.696;16.076;2022-09-27T01:33:07;20.56;62.21
72288;SHT31;60221;45.696;16.076;2022-09-27T01:36:01;20.56;62.20
72288;SHT31;60221;45.696;16.076;2022-09-27T01:47:47;20.60;62.64
72288;SHT31;60221;45.696;16.076;2022-09-27T01:50:38;20.63;62.70
72288;SHT31;60221;45.696;16.076;2022-09-27T01:53:26;20.68;62.66
72288;SHT31;60221;45.696;16.076;2022-09-27T01:56:17;20.65;62.71
72288;SHT31;60221;45.696;16.076;2022-09-27T01:58:55;20.68;62.59
72288;SHT31;60221;45.696;16.076;2022-09-27T02:01:24;20.69;62.80
72288;SHT31;60221;45.696;16.076;2022-09-27T02:03:54;20.71;62.67
72288;SHT31;60221;45.696;16.076;2022-09-27T02:06:45;20.66;61.99
72288;SHT31;60221;45.696;16.076;2022-09-27T02:12:07;20.49;62.80
72288;SHT31;60221;45.696;16.076;2022-09-27T02:14:54;20.38;63.12
72288;SHT31;60221;45.696;16.076;2022-09-27T02:20:40;20.28;63.94
72288;SHT31;60221;45.696;16.076;2022-09-27T02:23:20;20.31;63.94
72288;SHT31;60221;45.696;16.076;2022-09-27T02:26:00;20.32;63.83
72288;SHT31;60221;45.696;16.076;2022-09-27T02:31:12;20.39;63.75
72288;SHT31;60221;45.696;16.076;2022-09-27T02:33:53;20.41;63.67
72288;SHT31;60221;45.696;16.076;2022-09-27T02:36:20;20.41;63.74
72288;SHT31;60221;45.696;16.076;2022-09-27T02:38:47;20.41;63.67
72288;SHT31;60221;45.696;16.076;2022-09-27T02:41:16;20.44;63.67
72288;SHT31;60221;45.696;16.076;2022-09-27T02:43:47;20.48;63.66
72288;SHT31;60221;45.696;16.076;2022-09-27T02:46:37;20.48;63.57
72288;SHT31;60221;45.696;16.076;2022-09-27T02:49:43;20.52;63.57
72288;SHT31;60221;45.696;16.076;2022-09-27T03:01:50;20.35;63.37
72288;SHT31;60221;45.696;16.076;2022-09-27T03:04:51;20.25;63.62
72288;SHT31;60221;45.696;16.076;2022-09-27T03:07:17;20.23;63.91
72288;SHT31;60221;45.696;16.076;2022-09-27T03:09:47;20.21;63.79
72288;SHT31;60221;45.696;16.076;2022-09-27T03:12:17;20.18;63.98
72288;SHT31;60221;45.696;16.076;2022-09-27T03:14:56;20.18;64.27
72288;SHT31;60221;45.696;16.076;2022-09-27T03:17:40;20.18;64.30
72288;SHT31;60221;45.696;16.076;2022-09-27T03:20:24;20.20;63.88
72288;SHT31;60221;45.696;16.076;2022-09-27T03:23:04;20.13;64.00
72288;SHT31;60221;45.696;16.076;2022-09-27T03:25:31;20.10;64.25
72288;SHT31;60221;45.696;16.076;2022-09-27T03:27:57;20.11;64.45
72288;SHT31;60221;45.696;16.076;2022-09-27T03:30:23;20.13;64.56
72288;SHT31;60221;45.696;16.076;2022-09-27T03:32:49;20.07;64.48
72288;SHT31;60221;45.696;16.076;2022-09-27T03:35:32;20.13;64.44
72288;SHT31;60221;45.696;16.076;2022-09-27T03:37:59;20.14;64.39
72288;SHT31;60221;45.696;16.076;2022-09-27T03:40:25;20.14;64.42
72288;SHT31;60221;45.696;16.076;2022-09-27T03:42:51;20.17;64.37
72288;SHT31;60221;45.696;16.076;2022-09-27T03:45:17;20.17;64.06
72288;SHT31;60221;45.696;16.076;2022-09-27T03:47:44;20.17;63.96
72288;SHT31;60221;45.696;16.076;2022-09-27T03:50:11;20.15;64.26
72288;SHT31;60221;45.696;16.076;2022-09-27T03:52:37;20.15;64.27
72288;SHT31;60221;45.696;16.076;2022-09-27T03:55:05;20.18;64.14
72288;SHT31;60221;45.696;16.076;2022-09-27T03:57:32;20.14;64.25
72288;SHT31;60221;45.696;16.076;2022-09-27T03:59:58;20.14;64.10
72288;SHT31;60221;45.696;16.076;2022-09-27T04:02:41;20.13;63.92
72288;SHT31;60221;45.696;16.076;2022-09-27T04:05:10;20.04;63.63
72288;SHT31;60221;45.696;16.076;2022-09-27T04:07:36;19.97;63.99
72288;SHT31;60221;45.696;16.076;2022-09-27T04:10:04;19.96;64.42
72288;SHT31;60221;45.696;16.076;2022-09-27T04:12:32;19.90;64.72
72288;SHT31;60221;45.696;16.076;2022-09-27T04:14:58;19.88;64.62
72288;SHT31;60221;45.696;16.076;2022-09-27T04:17:43;19.90;64.76
72288;SHT31;60221;45.696;16.076;2022-09-27T04:20:23;19.91;64.80
72288;SHT31;60221;45.696;16.076;2022-09-27T04:22:50;19.93;64.72
72288;SHT31;60221;45.696;16.076;2022-09-27T04:25:16;19.97;64.61
72288;SHT31;60221;45.696;16.076;2022-09-27T04:27:46;20.01;64.09
72288;SHT31;60221;45.696;16.076;2022-09-27T04:30:14;20.01;64.37
72288;SHT31;60221;45.696;16.076;2022-09-27T04:32:54;20.04;64.16
72288;SHT31;60221;45.696;16.076;2022-09-27T04:35:39;20.03;64.41
72288;SHT31;60221;45.696;16.076;2022-09-27T04:38:24;20.04;64.32
72288;SHT31;60221;45.696;16.076;2022-09-27T04:40:50;20.08;64.08
72288;SHT31;60221;45.696;16.076;2022-09-27T04:43:16;20.08;63.87
72288;SHT31;60221;45.696;16.076;2022-09-27T04:45:43;20.06;63.84
72288;SHT31;60221;45.696;16.076;2022-09-27T04:48:10;20.06;63.85
72288;SHT31;60221;45.696;16.076;2022-09-27T04:50:37;20.08;63.73
72288;SHT31;60221;45.696;16.076;2022-09-27T04:53:05;20.08;63.59
72288;SHT31;60221;45.696;16.076;2022-09-27T04:55:32;20.07;63.77
72288;SHT31;60221;45.696;16.076;2022-09-27T04:57:58;20.10;63.63
72288;SHT31;60221;45.696;16.076;2022-09-27T05:00:26;20.13;63.67
72288;SHT31;60221;45.696;16.076;2022-09-27T05:02:55;20.17;63.52
72288;SHT31;60221;45.696;16.076;2022-09-27T05:05:35;20.17;63.52
72288;SHT31;60221;45.696;16.076;2022-09-27T05:08:01;20.21;63.39
72288;SHT31;60221;45.696;16.076;2022-09-27T05:10:29;20.23;63.22
72288;SHT31;60221;45.696;16.076;2022-09-27T05:12:55;20.23;62.98
72288;SHT31;60221;45.696;16.076;2022-09-27T05:15:21;20.25;63.23
72288;SHT31;60221;45.696;16.076;2022-09-27T05:17:58;20.23;63.22
72288;SHT31;60221;45.696;16.076;2022-09-27T05:20:41;20.23;63.23
72288;SHT31;60221;45.696;16.076;2022-09-27T05:23:12;20.23;63.25
72288;SHT31;60221;45.696;16.076;2022-09-27T05:25:38;20.24;63.13
72288;SHT31;60221;45.696;16.076;2022-09-27T05:28:04;20.21;63.08
72288;SHT31;60221;45.696;16.076;2022-09-27T05:30:31;20.20;63.12
72288;SHT31;60221;45.696;16.076;2022-09-27T05:33:05;20.15;63.33
72288;SHT31;60221;45.696;16.076;2022-09-27T05:35:54;20.17;63.39
72288;SHT31;60221;45.696;16.076;2022-09-27T05:38:23;20.18;63.38
72288;SHT31;60221;45.696;16.076;2022-09-27T05:40:52;20.23;63.16
72288;SHT31;60221;45.696;16.076;2022-09-27T05:43:19;20.23;63.32
72288;SHT31;60221;45.696;16.076;2022-09-27T05:45:46;20.25;63.34
72288;SHT31;60221;45.696;16.076;2022-09-27T05:48:14;20.32;63.23
72288;SHT31;60221;45.696;16.076;2022-09-27T05:50:48;20.42;62.96
72288;SHT31;60221;45.696;16.076;2022-09-27T05:53:14;20.48;62.97
72288;SHT31;60221;45.696;16.076;2022-09-27T05:55:40;20.58;62.88
72288;SHT31;60221;45.696;16.076;2022-09-27T05:58:09;20.62;62.63
72288;SHT31;60221;45.696;16.076;2022-09-27T06:00:38;20.68;62.57
72288;SHT31;60221;45.696;16.076;2022-09-27T06:03:06;20.73;62.29
72288;SHT31;60221;45.696;16.076;2022-09-27T06:05:51;20.73;62.41
72288;SHT31;60221;45.696;16.076;2022-09-27T06:08:28;20.78;62.25
72288;SHT31;60221;45.696;16.076;2022-09-27T06:11:06;20.84;62.21
72288;SHT31;60221;45.696;16.076;2022-09-27T06:13:31;20.93;62.10
72288;SHT31;60221;45.696;16.076;2022-09-27T06:16:02;21.04;62.10
72288;SHT31;60221;45.696;16.076;2022-09-27T06:18:29;21.18;61.83
72288;SHT31;60221;45.696;16.076;2022-09-27T06:21:01;21.33;61.64
72288;SHT31;60221;45.696;16.076;2022-09-27T06:23:29;21.49;61.34
72288;SHT31;60221;45.696;16.076;2022-09-27T06:26:03;21.68;60.73
72288;SHT31;60221;45.696;16.076;2022-09-27T06:28:32;21.82;60.22
72288;SHT31;60221;45.696;16.076;2022-09-27T06:31:06;21.89;59.65
72288;SHT31;60221;45.696;16.076;2022-09-27T06:33:35;21.95;59.65
72288;SHT31;60221;45.696;16.076;2022-09-27T06:36:04;22.31;59.50
72288;SHT31;60221;45.696;16.076;2022-09-27T06:38:33;22.31;57.49
72288;SHT31;60221;45.696;16.076;2022-09-27T06:41:18;21.59;57.23
72288;SHT31;60221;45.696;16.076;2022-09-27T06:44:02;21.00;58.50
72288;SHT31;60221;45.696;16.076;2022-09-27T06:46:47;20.58;59.28
72288;SHT31;60221;45.696;16.076;2022-09-27T06:49:30;20.27;61.56
72288;SHT31;60221;45.696;16.076;2022-09-27T06:51:56;19.98;61.38
72288;SHT31;60221;45.696;16.076;2022-09-27T06:54:23;19.72;62.29
72288;SHT31;60221;45.696;16.076;2022-09-27T06:56:49;20.03;64.62
72288;SHT31;60221;45.696;16.076;2022-09-27T06:59:15;20.32;63.43
72288;SHT31;60221;45.696;16.076;2022-09-27T07:02:19;20.48;63.11
72288;SHT31;60221;45.696;16.076;2022-09-27T07:04:59;20.60;62.63
72288;SHT31;60221;45.696;16.076;2022-09-27T07:07:27;20.66;62.44
72288;SHT31;60221;45.696;16.076;2022-09-27T07:09:54;20.71;62.45
72288;SHT31;60221;45.696;16.076;2022-09-27T07:12:20;20.71;62.40
72288;SHT31;60221;45.696;16.076;2022-09-27T07:14:47;20.68;62.43
72288;SHT31;60221;45.696;16.076;2022-09-27T07:17:16;20.71;62.19
72288;SHT31;60221;45.696;16.076;2022-09-27T07:19:44;20.73;62.18
72288;SHT31;60221;45.696;16.076;2022-09-27T07:22:11;20.72;61.92
72288;SHT31;60221;45.696;16.076;2022-09-27T07:24:37;20.66;62.02
72288;SHT31;60221;45.696;16.076;2022-09-27T07:27:04;20.73;62.50
72288;SHT31;60221;45.696;16.076;2022-09-27T07:29:31;20.78;62.25
72288;SHT31;60221;45.696;16.076;2022-09-27T07:31:58;20.83;62.33
72288;SHT31;60221;45.696;16.076;2022-09-27T07:34:26;20.86;61.80
72288;SHT31;60221;45.696;16.076;2022-09-27T07:36:58;20.89;61.55
72288;SHT31;60221;45.696;16.076;2022-09-27T07:39:25;21.00;61.64
72288;SHT31;60221;45.696;16.076;2022-09-27T07:41:51;21.18;62.14
72288;SHT31;60221;45.696;16.076;2022-09-27T07:44:17;21.44;61.32
72288;SHT31;60221;45.696;16.076;2022-09-27T07:46:57;21.75;60.65
72288;SHT31;60221;45.696;16.076;2022-09-27T07:49:25;21.89;58.62
72288;SHT31;60221;45.696;16.076;2022-09-27T07:52:02;21.44;59.32
72288;SHT31;60221;45.696;16.076;2022-09-27T07:54:36;21.07;59.65
72288;SHT31;60221;45.696;16.076;2022-09-27T07:57:07;20.91;59.92
72288;SHT31;60221;45.696;16.076;2022-09-27T07:59:35;20.84;60.82
72288;SHT31;60221;45.696;16.076;2022-09-27T08:02:02;20.73;61.73
72288;SHT31;60221;45.696;16.076;2022-09-27T08:04:28;20.90;63.17
72288;SHT31;60221;45.696;16.076;2022-09-27T08:06:54;21.37;61.98
72288;SHT31;60221;45.696;16.076;2022-09-27T08:09:21;21.78;61.14
72288;SHT31;60221;45.696;16.076;2022-09-27T08:11:48;21.97;60.10
72288;SHT31;60221;45.696;16.076;2022-09-27T08:14:14;22.16;60.02
72288;SHT31;60221;45.696;16.076;2022-09-27T08:16:42;22.48;60.18
72288;SHT31;60221;45.696;16.076;2022-09-27T08:19:16;22.94;59.55
72288;SHT31;60221;45.696;16.076;2022-09-27T08:21:54;22.96;56.29
72288;SHT31;60221;45.696;16.076;2022-09-27T08:24:22;22.71;58.49
72288;SHT31;60221;45.696;16.076;2022-09-27T08:27:02;22.44;58.43
72288;SHT31;60221;45.696;16.076;2022-09-27T08:29:47;22.10;58.68
72288;SHT31;60221;45.696;16.076;2022-09-27T08:32:16;21.89;59.25
72288;SHT31;60221;45.696;16.076;2022-09-27T08:34:43;21.74;60.92
72288;SHT31;60221;45.696;16.076;2022-09-27T08:37:09;21.65;59.72
72288;SHT31;60221;45.696;16.076;2022-09-27T08:39:37;21.55;62.40
72288;SHT31;60221;45.696;16.076;2022-09-27T08:45:25;22.64;61.10
72288;SHT31;60221;45.696;16.076;2022-09-27T08:48:01;23.23;59.25
72288;SHT31;60221;45.696;16.076;2022-09-27T08:50:41;23.26;57.84
72288;SHT31;60221;45.696;16.076;2022-09-27T08:55:56;22.59;57.31
72288;SHT31;60221;45.696;16.076;2022-09-27T08:58:33;22.47;59.00
72288;SHT31;60221;45.696;16.076;2022-09-27T09:01:16;22.31;58.00
72288;SHT31;60221;45.696;16.076;2022-09-27T09:03:49;22.16;59.40
72288;SHT31;60221;45.696;16.076;2022-09-27T09:21:23;22.27;61.69
72288;SHT31;60221;45.696;16.076;2022-09-27T09:24:06;22.64;61.09
72288;SHT31;60221;45.696;16.076;2022-09-27T09:26:49;22.82;60.52
72288;SHT31;60221;45.696;16.076;2022-09-27T09:35:25;22.36;57.96
72288;SHT31;60221;45.696;16.076;2022-09-27T09:37:56;22.00;58.38
72288;SHT31;60221;45.696;16.076;2022-09-27T09:40:39;21.75;59.71
72288;SHT31;60221;45.696;16.076;2022-09-27T09:43:34;21.54;59.91
72288;SHT31;60221;45.696;16.076;2022-09-27T09:46:22;21.28;60.85
72288;SHT31;60221;45.696;16.076;2022-09-27T09:49:28;21.13;61.96
72288;SHT31;60221;45.696;16.076;2022-09-27T09:52:10;20.96;63.02
72288;SHT31;60221;45.696;16.076;2022-09-27T09:54:43;21.35;64.73
72288;SHT31;60221;45.696;16.076;2022-09-27T10:00:12;22.07;62.92
72288;SHT31;60221;45.696;16.076;2022-09-27T10:02:41;22.34;62.18
72288;SHT31;60221;45.696;16.076;2022-09-27T10:05:15;22.54;61.57
72288;SHT31;60221;45.696;16.076;2022-09-27T10:07:42;22.75;61.56
72288;SHT31;60221;45.696;16.076;2022-09-27T10:10:14;22.94;60.21
72288;SHT31;60221;45.696;16.076;2022-09-27T10:13:02;23.06;57.77
72288;SHT31;60221;45.696;16.076;2022-09-27T10:15:31;22.80;58.53
72288;SHT31;60221;45.696;16.076;2022-09-27T10:17:59;22.57;58.69
72288;SHT31;60221;45.696;16.076;2022-09-27T10:20:51;22.36;59.68
72288;SHT31;60221;45.696;16.076;2022-09-27T10:23:21;22.16;60.26
72288;SHT31;60221;45.696;16.076;2022-09-27T10:25:56;22.04;60.66
72288;SHT31;60221;45.696;16.076;2022-09-27T10:28:38;21.92;60.55
72288;SHT31;60221;45.696;16.076;2022-09-27T10:31:14;21.85;61.32
72288;SHT31;60221;45.696;16.076;2022-09-27T10:34:02;21.82;60.57
72288;SHT31;60221;45.696;16.076;2022-09-27T10:36:39;21.79;61.48
72288;SHT31;60221;45.696;16.076;2022-09-27T10:39:18;21.78;62.83
72288;SHT31;60221;45.696;16.076;2022-09-27T10:41:41;22.17;62.66
72288;SHT31;60221;45.696;16.076;2022-09-27T10:46:55;22.95;60.21
72288;SHT31;60221;45.696;16.076;2022-09-27T10:49:41;23.17;59.87
72288;SHT31;60221;45.696;16.076;2022-09-27T10:52:19;23.34;59.07
72288;SHT31;60221;45.696;16.076;2022-09-27T10:55:07;23.26;59.09
72288;SHT31;60221;45.696;16.076;2022-09-27T10:57:37;22.98;58.15
72288;SHT31;60221;45.696;16.076;2022-09-27T11:00:29;22.80;58.04
72288;SHT31;60221;45.696;16.076;2022-09-27T11:03:00;22.71;59.14
72288;SHT31;60221;45.696;16.076;2022-09-27T11:05:37;22.65;60.22
72288;SHT31;60221;45.696;16.076;2022-09-27T11:08:32;22.58;59.76
72288;SHT31;60221;45.696;16.076;2022-09-27T11:14:04;22.69;61.28
72288;SHT31;60221;45.696;16.076;2022-09-27T11:22:28;22.85;61.05
72288;SHT31;60221;45.696;16.076;2022-09-27T11:28:08;22.75;60.84
72288;SHT31;60221;45.696;16.076;2022-09-27T11:31:01;22.74;61.30
72288;SHT31;60221;45.696;16.076;2022-09-27T11:47:54;22.75;61.38
72288;SHT31;60221;45.696;16.076;2022-09-27T11:56:42;22.37;60.83
72288;SHT31;60221;45.696;16.076;2022-09-27T12:02:37;22.16;61.97
72288;SHT31;60221;45.696;16.076;2022-09-27T12:10:29;23.19;60.80
72288;SHT31;60221;45.696;16.076;2022-09-27T12:12:57;23.40;60.40
72288;SHT31;60221;45.696;16.076;2022-09-27T12:15:31;23.53;59.93
72288;SHT31;60221;45.696;16.076;2022-09-27T12:20:46;23.75;58.57
72288;SHT31;60221;45.696;16.076;2022-09-27T12:23:25;23.61;58.93
72288;SHT31;60221;45.696;16.076;2022-09-27T12:25:58;23.43;58.15
72288;SHT31;60221;45.696;16.076;2022-09-27T12:28:33;23.26;58.80
72288;SHT31;60221;45.696;16.076;2022-09-27T12:31:22;23.17;58.75
72288;SHT31;60221;45.696;16.076;2022-09-27T12:34:10;23.09;58.67
72288;SHT31;60221;45.696;16.076;2022-09-27T12:36:35;23.03;58.63
72288;SHT31;60221;45.696;16.076;2022-09-27T12:41:43;22.78;59.35
72288;SHT31;60221;45.696;16.076;2022-09-27T12:44:15;22.75;60.55
72288;SHT31;60221;45.696;16.076;2022-09-27T12:52:32;22.48;60.88
72288;SHT31;60221;45.696;16.076;2022-09-27T12:58:06;22.37;61.12
72288;SHT31;60221;45.696;16.076;2022-09-27T13:00:30;22.34;61.77
72288;SHT31;60221;45.696;16.076;2022-09-27T13:09:10;22.55;61.97
72288;SHT31;60221;45.696;16.076;2022-09-27T13:14:33;22.79;61.59
72288;SHT31;60221;45.696;16.076;2022-09-27T13:17:00;22.78;61.72
72288;SHT31;60221;45.696;16.076;2022-09-27T13:19:42;22.78;61.92
72288;SHT31;60221;45.696;16.076;2022-09-27T13:22:38;22.79;62.10
72288;SHT31;60221;45.696;16.076;2022-09-27T13:26:03;22.78;61.92
72288;SHT31;60221;45.696;16.076;2022-09-27T13:34:49;22.88;61.51
72288;SHT31;60221;45.696;16.076;2022-09-27T13:40:20;22.86;61.24
72288;SHT31;60221;45.696;16.076;2022-09-27T13:43:59;22.82;61.48
72288;SHT31;60221;45.696;16.076;2022-09-27T13:45:58;22.72;62.23
72288;SHT31;60221;45.696;16.076;2022-09-27T13:48:54;22.59;55.31
72288;SHT31;60221;45.696;16.076;2022-09-27T13:51:45;22.37;57.13
72288;SHT31;60221;45.696;16.076;2022-09-27T13:54:48;22.31;58.83
72288;SHT31;60221;45.696;16.076;2022-09-27T14:00:23;22.29;55.84
72288;SHT31;60221;45.696;16.076;2022-09-27T14:05:54;22.00;54.44
72288;SHT31;60221;45.696;16.076;2022-09-27T14:08:34;21.81;54.17
72288;SHT31;60221;45.696;16.076;2022-09-27T14:11:04;21.62;54.18
72288;SHT31;60221;45.696;16.076;2022-09-27T14:13:32;21.52;55.55
72288;SHT31;60221;45.696;16.076;2022-09-27T14:16:03;21.40;55.94
72288;SHT31;60221;45.696;16.076;2022-09-27T14:18:33;21.30;54.80
72288;SHT31;60221;45.696;16.076;2022-09-27T14:24:29;21.10;57.28
72288;SHT31;60221;45.696;16.076;2022-09-27T14:27:12;20.96;57.28
72288;SHT31;60221;45.696;16.076;2022-09-27T14:29:44;20.86;56.92
72288;SHT31;60221;45.696;16.076;2022-09-27T14:32:21;20.66;57.86
72288;SHT31;60221;45.696;16.076;2022-09-27T14:35:10;20.49;58.08
72288;SHT31;60221;45.696;16.076;2022-09-27T14:37:39;20.36;59.07
72288;SHT31;60221;45.696;16.076;2022-09-27T14:40:18;20.27;58.90
72288;SHT31;60221;45.696;16.076;2022-09-27T14:42:40;20.21;57.87
72288;SHT31;60221;45.696;16.076;2022-09-27T14:45:26;20.04;55.46
72288;SHT31;60221;45.696;16.076;2022-09-27T14:47:53;19.80;57.46
72288;SHT31;60221;45.696;16.076;2022-09-27T14:50:27;19.59;58.09
72288;SHT31;60221;45.696;16.076;2022-09-27T14:52:57;19.33;58.92
72288;SHT31;60221;45.696;16.076;2022-09-27T14:55:28;19.14;58.20
72288;SHT31;60221;45.696;16.076;2022-09-27T14:57:59;18.90;57.49
72288;SHT31;60221;45.696;16.076;2022-09-27T15:00:30;18.68;58.42
72288;SHT31;60221;45.696;16.076;2022-09-27T15:03:01;18.47;59.37
72288;SHT31;60221;45.696;16.076;2022-09-27T15:05:33;18.29;60.79
72288;SHT31;60221;45.696;16.076;2022-09-27T15:08:04;18.02;61.77
72288;SHT31;60221;45.696;16.076;2022-09-27T15:10:34;18.15;63.24
72288;SHT31;60221;45.696;16.076;2022-09-27T15:13:04;18.55;62.89
72288;SHT31;60221;45.696;16.076;2022-09-27T15:15:36;19.07;59.97
72288;SHT31;60221;45.696;16.076;2022-09-27T15:18:41;19.35;60.02
72288;SHT31;60221;45.696;16.076;2022-09-27T15:21:12;19.26;58.98
72288;SHT31;60221;45.696;16.076;2022-09-27T15:23:44;18.73;59.16
72288;SHT31;60221;45.696;16.076;2022-09-27T15:26:18;18.20;60.04
72288;SHT31;60221;45.696;16.076;2022-09-27T15:28:49;17.80;62.50
72288;SHT31;60221;45.696;16.076;2022-09-27T15:31:29;17.91;64.24
72288;SHT31;60221;45.696;16.076;2022-09-27T15:33:54;18.45;62.08
72288;SHT31;60221;45.696;16.076;2022-09-27T15:36:55;18.47;60.68
72288;SHT31;60221;45.696;16.076;2022-09-27T15:39:40;18.50;63.80
72288;SHT31;60221;45.696;16.076;2022-09-27T15:42:14;19.44;61.07
72288;SHT31;60221;45.696;16.076;2022-09-27T15:44:51;20.01;58.15
72288;SHT31;60221;45.696;16.076;2022-09-27T15:52:55;18.04;59.41
72288;SHT31;60221;45.696;16.076;2022-09-27T15:55:26;17.54;60.20
72288;SHT31;60221;45.696;16.076;2022-09-27T15:57:59;17.21;61.11
72288;SHT31;60221;45.696;16.076;2022-09-27T16:00:28;16.92;62.02
72288;SHT31;60221;45.696;16.076;2022-09-27T16:02:55;17.35;66.32
72288;SHT31;60221;45.696;16.076;2022-09-27T16:05:23;17.91;65.35
72288;SHT31;60221;45.696;16.076;2022-09-27T16:07:50;18.55;67.05
72288;SHT31;60221;45.696;16.076;2022-09-27T16:10:20;19.68;64.93
72288;SHT31;60221;45.696;16.076;2022-09-27T16:12:48;20.04;61.80
72288;SHT31;60221;45.696;16.076;2022-09-27T16:15:16;20.48;60.59
72288;SHT31;60221;45.696;16.076;2022-09-27T16:17:43;20.86;56.01
72288;SHT31;60221;45.696;16.076;2022-09-27T16:20:16;20.14;55.47
72288;SHT31;60221;45.696;16.076;2022-09-27T16:22:45;19.33;56.03
72288;SHT31;60221;45.696;16.076;2022-09-27T16:25:11;18.73;56.96
72288;SHT31;60221;45.696;16.076;2022-09-27T16:27:37;18.33;57.80
72288;SHT31;60221;45.696;16.076;2022-09-27T16:30:05;17.92;59.13
72288;SHT31;60221;45.696;16.076;2022-09-27T16:32:33;17.62;60.75
72288;SHT31;60221;45.696;16.076;2022-09-27T16:35:02;17.29;61.66
72288;SHT31;60221;45.696;16.076;2022-09-27T16:37:29;16.95;62.59
72288;SHT31;60221;45.696;16.076;2022-09-27T16:39:55;17.49;65.27
72288;SHT31;60221;45.696;16.076;2022-09-27T16:42:21;18.00;64.25
72288;SHT31;60221;45.696;16.076;2022-09-27T16:44:47;18.16;62.05
72288;SHT31;60221;45.696;16.076;2022-09-27T16:47:15;18.13;62.58
72288;SHT31;60221;45.696;16.076;2022-09-27T16:49:41;18.18;63.08
72288;SHT31;60221;45.696;16.076;2022-09-27T16:52:25;18.16;62.02
72288;SHT31;60221;45.696;16.076;2022-09-27T16:54:51;18.13;61.66
72288;SHT31;60221;45.696;16.076;2022-09-27T16:57:17;18.12;61.88
72288;SHT31;60221;45.696;16.076;2022-09-27T16:59:43;18.12;62.27
72288;SHT31;60221;45.696;16.076;2022-09-27T17:02:11;18.13;62.52
72288;SHT31;60221;45.696;16.076;2022-09-27T17:04:38;18.16;62.02
72288;SHT31;60221;45.696;16.076;2022-09-27T17:07:04;18.25;62.57
72288;SHT31;60221;45.696;16.076;2022-09-27T17:09:30;18.22;62.20
72288;SHT31;60221;45.696;16.076;2022-09-27T17:11:56;18.24;61.95
72288;SHT31;60221;45.696;16.076;2022-09-27T17:14:22;18.18;61.51
72288;SHT31;60221;45.696;16.076;2022-09-27T17:16:48;18.13;61.86
72288;SHT31;60221;45.696;16.076;2022-09-27T17:19:16;18.11;62.47
72288;SHT31;60221;45.696;16.076;2022-09-27T17:21:44;18.11;62.67
72288;SHT31;60221;45.696;16.076;2022-09-27T17:24:11;18.33;63.81
72288;SHT31;60221;45.696;16.076;2022-09-27T17:26:37;19.55;64.50
72288;SHT31;60221;45.696;16.076;2022-09-27T17:29:04;20.32;60.13
72288;SHT31;60221;45.696;16.076;2022-09-27T17:31:30;20.72;57.39
72288;SHT31;60221;45.696;16.076;2022-09-27T17:33:59;20.07;54.97
72288;SHT31;60221;45.696;16.076;2022-09-27T17:36:29;19.17;55.70
72288;SHT31;60221;45.696;16.076;2022-09-27T17:38:58;18.45;57.72
72288;SHT31;60221;45.696;16.076;2022-09-27T17:41:26;17.90;59.11
72288;SHT31;60221;45.696;16.076;2022-09-27T17:43:58;17.49;59.92
72288;SHT31;60221;45.696;16.076;2022-09-27T17:46:28;17.06;61.99
72288;SHT31;60221;45.696;16.076;2022-09-27T17:48:55;17.64;66.13
72288;SHT31;60221;45.696;16.076;2022-09-27T17:51:41;18.95;64.13
72288;SHT31;60221;45.696;16.076;2022-09-27T17:54:09;19.59;61.26
72288;SHT31;60221;45.696;16.076;2022-09-27T17:56:37;20.15;60.10
72288;SHT31;60221;45.696;16.076;2022-09-27T17:59:06;20.18;56.83
72288;SHT31;60221;45.696;16.076;2022-09-27T18:01:33;19.33;55.87
72288;SHT31;60221;45.696;16.076;2022-09-27T18:04:01;18.49;57.62
72288;SHT31;60221;45.696;16.076;2022-09-27T18:06:29;17.91;57.98
72288;SHT31;60221;45.696;16.076;2022-09-27T18:08:56;17.44;60.06
72288;SHT31;60221;45.696;16.076;2022-09-27T18:11:25;17.11;61.40
72288;SHT31;60221;45.696;16.076;2022-09-27T18:13:56;16.77;62.89
72288;SHT31;60221;45.696;16.076;2022-09-27T18:16:30;17.46;67.07
72288;SHT31;60221;45.696;16.076;2022-09-27T18:19:05;18.76;65.25
72288;SHT31;60221;45.696;16.076;2022-09-27T18:21:31;19.66;62.26
72288;SHT31;60221;45.696;16.076;2022-09-27T18:23:59;20.04;59.97
72288;SHT31;60221;45.696;16.076;2022-09-27T18:26:27;20.46;58.16
72288;SHT31;60221;45.696;16.076;2022-09-27T18:29:05;20.06;55.36
72288;SHT31;60221;45.696;16.076;2022-09-27T18:31:28;19.15;55.99